sensor_id;sensor_type;location;lat;lon;timestamp;pressure;altitude;pressure_sealevel;temperature;humidity
69749;BME280;57019;52.354;6.584;2022-07-19T00:02:07;101888.47;;;24.77;44.82
69749;BME280;57019;52.354;6.584;2022-07-19T00:04:33;101885.81;;;24.77;44.71
69749;BME280;57019;52.354;6.584;2022-07-19T00:06:59;101890.28;;;24.77;44.88
69749;BME280;57019;52.354;6.584;2022-07-19T00:09:24;101889.47;;;24.76;44.82
69749;BME280;57019;52.354;6.584;2022-07-19T00:11:51;101884.19;;;24.76;44.83
69749;BME280;57019;52.354;6.584;2022-07-19T00:14:16;101887.81;;;24.75;44.82
69749;BME280;57019;52.354;6.584;2022-07-19T00:16:42;101880.91;;;24.74;44.80
69749;BME280;57019;52.354;6.584;2022-07-19T00:19:07;101891.47;;;24.74;44.92
69749;BME280;57019;52.354;6.584;2022-07-19T00:21:33;101881.72;;;24.75;45.00
69749;BME280;57019;52.354;6.584;2022-07-19T00:23:58;101880.91;;;24.74;44.91
69749;BME280;57019;52.354;6.584;2022-07-19T00:26:26;101871.34;;;24.73;45.06
69749;BME280;57019;52.354;6.584;2022-07-19T00:28:51;101875.00;;;24.72;44.99
69749;BME280;57019;52.354;6.584;2022-07-19T00:31:20;101880.28;;;24.72;45.17
69749;BME280;57019;52.354;6.584;2022-07-19T00:33:45;101872.34;;;24.72;45.07
69749;BME280;57019;52.354;6.584;2022-07-19T00:36:11;101876.78;;;24.71;45.20
69749;BME280;57019;52.354;6.584;2022-07-19T00:38:36;101873.34;;;24.71;45.09
69749;BME280;57019;52.354;6.584;2022-07-19T00:41:02;101869.06;;;24.70;45.20
69749;BME280;57019;52.354;6.584;2022-07-19T00:43:27;101869.06;;;24.70;45.34
69749;BME280;57019;52.354;6.584;2022-07-19T00:45:52;101869.06;;;24.70;45.19
69749;BME280;57019;52.354;6.584;2022-07-19T00:48:18;101860.34;;;24.69;45.16
69749;BME280;57019;52.354;6.584;2022-07-19T00:50:43;101867.47;;;24.69;45.28
69749;BME280;57019;52.354;6.584;2022-07-19T00:53:09;101856.88;;;24.69;45.13
69749;BME280;57019;52.354;6.584;2022-07-19T00:55:35;101865.81;;;24.68;45.35
69749;BME280;57019;52.354;6.584;2022-07-19T00:58:01;101870.25;;;24.67;45.34
69749;BME280;57019;52.354;6.584;2022-07-19T01:00:32;101856.06;;;24.68;45.23
69749;BME280;57019;52.354;6.584;2022-07-19T01:02:58;101850.16;;;24.66;45.43
69749;BME280;57019;52.354;6.584;2022-07-19T01:05:23;101863.38;;;24.66;45.40
69749;BME280;57019;52.354;6.584;2022-07-19T01:07:48;101856.44;;;24.65;45.43
69749;BME280;57019;52.354;6.584;2022-07-19T01:10:15;101863.56;;;24.65;45.35
69749;BME280;57019;52.354;6.584;2022-07-19T01:12:42;101864.56;;;24.64;45.39
69749;BME280;57019;52.354;6.584;2022-07-19T01:15:18;101863.56;;;24.65;45.43
69749;BME280;57019;52.354;6.584;2022-07-19T01:17:44;101861.91;;;24.64;45.30
69749;BME280;57019;52.354;6.584;2022-07-19T01:20:10;101862.91;;;24.63;45.57
69749;BME280;57019;52.354;6.584;2022-07-19T01:22:35;101861.25;;;24.62;45.64
69749;BME280;57019;52.354;6.584;2022-07-19T01:25:01;101868.19;;;24.63;45.67
69749;BME280;57019;52.354;6.584;2022-07-19T01:27:26;101871.81;;;24.62;45.57
69749;BME280;57019;52.354;6.584;2022-07-19T01:29:51;101866.53;;;24.62;45.65
69749;BME280;57019;52.354;6.584;2022-07-19T01:32:17;101875.47;;;24.61;45.66
69749;BME280;57019;52.354;6.584;2022-07-19T01:34:42;101868.53;;;24.60;45.73
69749;BME280;57019;52.354;6.584;2022-07-19T01:37:07;101876.31;;;24.61;45.63
69749;BME280;57019;52.354;6.584;2022-07-19T01:39:33;101879.09;;;24.60;45.51
69749;BME280;57019;52.354;6.584;2022-07-19T01:41:58;101879.09;;;24.60;45.64
69749;BME280;57019;52.354;6.584;2022-07-19T01:44:23;101883.53;;;24.59;45.75
69749;BME280;57019;52.354;6.584;2022-07-19T01:46:49;101888.81;;;24.59;45.67
69749;BME280;57019;52.354;6.584;2022-07-19T01:49:14;101878.47;;;24.58;45.34
69749;BME280;57019;52.354;6.584;2022-07-19T01:51:40;101875.81;;;24.58;45.82
69749;BME280;57019;52.354;6.584;2022-07-19T01:54:05;101875.00;;;24.57;45.62
69749;BME280;57019;52.354;6.584;2022-07-19T01:56:30;101882.75;;;24.59;45.80
69749;BME280;57019;52.354;6.584;2022-07-19T01:58:55;101868.09;;;24.56;45.87
69749;BME280;57019;52.354;6.584;2022-07-19T02:01:21;101869.72;;;24.57;45.78
69749;BME280;57019;52.354;6.584;2022-07-19T02:03:46;101867.09;;;24.57;45.78
69749;BME280;57019;52.354;6.584;2022-07-19T02:06:11;101865.44;;;24.56;45.92
69749;BME280;57019;52.354;6.584;2022-07-19T02:08:37;101867.28;;;24.55;45.89
69749;BME280;57019;52.354;6.584;2022-07-19T02:11:03;101855.88;;;24.55;45.98
69749;BME280;57019;52.354;6.584;2022-07-19T02:13:48;101855.06;;;24.54;45.92
69749;BME280;57019;52.354;6.584;2022-07-19T02:16:13;101854.25;;;24.54;45.94
69749;BME280;57019;52.354;6.584;2022-07-19T02:18:39;101858.72;;;24.53;45.96
69749;BME280;57019;52.354;6.584;2022-07-19T02:21:04;101853.44;;;24.53;45.95
69749;BME280;57019;52.354;6.584;2022-07-19T02:23:30;101864.00;;;24.53;45.98
69749;BME280;57019;52.354;6.584;2022-07-19T02:25:55;101859.75;;;24.52;45.95
69749;BME280;57019;52.354;6.584;2022-07-19T02:28:20;101851.81;;;24.52;45.98
69749;BME280;57019;52.354;6.584;2022-07-19T02:30:46;101862.38;;;24.52;45.95
69749;BME280;57019;52.354;6.584;2022-07-19T02:33:11;101858.91;;;24.52;46.03
69749;BME280;57019;52.354;6.584;2022-07-19T02:35:36;101859.91;;;24.51;46.00
69749;BME280;57019;52.354;6.584;2022-07-19T02:38:01;101850.97;;;24.52;46.01
69749;BME280;57019;52.354;6.584;2022-07-19T02:40:27;101850.16;;;24.51;46.14
69749;BME280;57019;52.354;6.584;2022-07-19T02:42:52;101849.34;;;24.51;46.00
69749;BME280;57019;52.354;6.584;2022-07-19T02:45:18;101848.53;;;24.50;46.20
69749;BME280;57019;52.354;6.584;2022-07-19T02:47:43;101846.88;;;24.49;46.09
69749;BME280;57019;52.354;6.584;2022-07-19T02:50:08;101848.53;;;24.50;46.23
69749;BME280;57019;52.354;6.584;2022-07-19T02:52:34;101857.44;;;24.49;46.10
69749;BME280;57019;52.354;6.584;2022-07-19T02:54:59;101846.88;;;24.49;46.24
69749;BME280;57019;52.354;6.584;2022-07-19T02:57:25;101853.81;;;24.50;46.39
69749;BME280;57019;52.354;6.584;2022-07-19T02:59:50;101858.47;;;24.48;46.24
69749;BME280;57019;52.354;6.584;2022-07-19T03:02:15;101855.00;;;24.48;46.32
69749;BME280;57019;52.354;6.584;2022-07-19T03:04:41;101856.84;;;24.47;46.25
69749;BME280;57019;52.354;6.584;2022-07-19T03:07:06;101856.84;;;24.47;46.31
69749;BME280;57019;52.354;6.584;2022-07-19T03:09:31;101855.00;;;24.48;46.32
69749;BME280;57019;52.354;6.584;2022-07-19T03:11:57;101859.47;;;24.47;46.29
69749;BME280;57019;52.354;6.584;2022-07-19T03:14:22;101856.19;;;24.45;46.25
69749;BME280;57019;52.354;6.584;2022-07-19T03:16:47;101854.56;;;24.44;46.36
69749;BME280;57019;52.354;6.584;2022-07-19T03:19:13;101851.94;;;24.44;46.49
69749;BME280;57019;52.354;6.584;2022-07-19T03:21:38;101858.81;;;24.45;46.40
69749;BME280;57019;52.354;6.584;2022-07-19T03:24:03;101855.38;;;24.45;46.41
69749;BME280;57019;52.354;6.584;2022-07-19T03:26:29;101849.28;;;24.44;46.22
69749;BME280;57019;52.354;6.584;2022-07-19T03:28:54;101850.09;;;24.45;46.47
69749;BME280;57019;52.354;6.584;2022-07-19T03:31:19;101849.28;;;24.44;46.49
69749;BME280;57019;52.354;6.584;2022-07-19T03:33:45;101852.94;;;24.43;46.43
69749;BME280;57019;52.354;6.584;2022-07-19T03:36:10;101852.94;;;24.43;46.35
69749;BME280;57019;52.354;6.584;2022-07-19T03:38:35;101849.44;;;24.43;46.43
69749;BME280;57019;52.354;6.584;2022-07-19T03:41:01;101846.81;;;24.43;46.37
69749;BME280;57019;52.354;6.584;2022-07-19T03:43:26;101853.13;;;24.42;46.39
69749;BME280;57019;52.354;6.584;2022-07-19T03:45:52;101851.28;;;24.42;46.52
69749;BME280;57019;52.354;6.584;2022-07-19T03:48:17;101852.28;;;24.41;46.44
69749;BME280;57019;52.354;6.584;2022-07-19T03:50:42;101855.94;;;24.40;46.15
69749;BME280;57019;52.354;6.584;2022-07-19T03:53:08;101858.59;;;24.40;46.50
69749;BME280;57019;52.354;6.584;2022-07-19T03:55:34;101864.66;;;24.41;46.46
69749;BME280;57019;52.354;6.584;2022-07-19T03:57:59;101855.94;;;24.40;46.65
69749;BME280;57019;52.354;6.584;2022-07-19T04:00:25;101855.09;;;24.39;46.51
69749;BME280;57019;52.354;6.584;2022-07-19T04:02:50;101856.09;;;24.38;46.49
69749;BME280;57019;52.354;6.584;2022-07-19T04:05:16;101863.22;;;24.38;46.56
69749;BME280;57019;52.354;6.584;2022-07-19T04:07:41;101855.28;;;24.38;46.41
69749;BME280;57019;52.354;6.584;2022-07-19T04:10:07;101851.66;;;24.39;46.51
69749;BME280;57019;52.354;6.584;2022-07-19T04:12:33;101848.19;;;24.38;46.51
69749;BME280;57019;52.354;6.584;2022-07-19T04:14:58;101850.00;;;24.38;46.48
69749;BME280;57019;52.354;6.584;2022-07-19T04:17:24;101844.75;;;24.38;46.66
69749;BME280;57019;52.354;6.584;2022-07-19T04:19:49;101849.22;;;24.37;46.52
69749;BME280;57019;52.354;6.584;2022-07-19T04:22:15;101852.66;;;24.38;46.40
69749;BME280;57019;52.354;6.584;2022-07-19T04:24:40;101850.00;;;24.38;46.58
69749;BME280;57019;52.354;6.584;2022-07-19T04:27:05;101853.66;;;24.37;46.55
69749;BME280;57019;52.354;6.584;2022-07-19T04:29:31;101852.84;;;24.36;46.76
69749;BME280;57019;52.354;6.584;2022-07-19T04:31:56;101855.50;;;24.36;46.56
69749;BME280;57019;52.354;6.584;2022-07-19T04:34:21;101858.94;;;24.37;46.63
69749;BME280;57019;52.354;6.584;2022-07-19T04:36:47;101856.28;;;24.37;46.64
69749;BME280;57019;52.354;6.584;2022-07-19T04:39:12;101861.56;;;24.37;46.72
69749;BME280;57019;52.354;6.584;2022-07-19T04:41:38;101856.28;;;24.37;46.51
69749;BME280;57019;52.354;6.584;2022-07-19T04:44:03;101855.50;;;24.36;46.59
69749;BME280;57019;52.354;6.584;2022-07-19T04:46:28;101856.28;;;24.37;46.67
69749;BME280;57019;52.354;6.584;2022-07-19T04:48:54;101854.50;;;24.37;46.73
69749;BME280;57019;52.354;6.584;2022-07-19T04:51:19;101853.31;;;24.40;46.70
69749;BME280;57019;52.354;6.584;2022-07-19T04:53:44;101852.09;;;24.43;46.67
69749;BME280;57019;52.354;6.584;2022-07-19T04:56:10;101845.00;;;24.43;46.71
69749;BME280;57019;52.354;6.584;2022-07-19T04:58:35;101841.19;;;24.46;46.74
69749;BME280;57019;52.354;6.584;2022-07-19T05:01:00;101842.00;;;24.46;46.68
69749;BME280;57019;52.354;6.584;2022-07-19T05:03:26;101844.75;;;24.38;46.72
69749;BME280;57019;52.354;6.584;2022-07-19T05:05:51;101847.03;;;24.26;46.82
69749;BME280;57019;52.354;6.584;2022-07-19T05:08:16;101846.78;;;24.21;46.79
69749;BME280;57019;52.354;6.584;2022-07-19T05:10:43;101843.06;;;24.15;46.83
69749;BME280;57019;52.354;6.584;2022-07-19T05:13:08;101846.50;;;24.16;46.74
69749;BME280;57019;52.354;6.584;2022-07-19T05:15:34;101845.72;;;24.15;46.74
69749;BME280;57019;52.354;6.584;2022-07-19T05:17:59;101844.88;;;24.15;46.80
69749;BME280;57019;52.354;6.584;2022-07-19T05:20:24;101839.78;;;24.13;46.73
69749;BME280;57019;52.354;6.584;2022-07-19T05:22:50;101842.41;;;24.13;46.58
69749;BME280;57019;52.354;6.584;2022-07-19T05:25:15;101837.16;;;24.13;46.62
69749;BME280;57019;52.354;6.584;2022-07-19T05:27:42;101837.78;;;24.15;46.36
69749;BME280;57019;52.354;6.584;2022-07-19T05:30:09;101838.41;;;24.17;46.39
69749;BME280;57019;52.354;6.584;2022-07-19T05:32:34;101832.31;;;24.17;46.33
69749;BME280;57019;52.354;6.584;2022-07-19T05:34:59;101832.31;;;24.17;46.25
69749;BME280;57019;52.354;6.584;2022-07-19T05:37:25;101833.94;;;24.18;46.17
69749;BME280;57019;52.354;6.584;2022-07-19T05:39:50;101829.31;;;24.20;46.02
69749;BME280;57019;52.354;6.584;2022-07-19T05:42:15;101826.47;;;24.21;45.91
69749;BME280;57019;52.354;6.584;2022-07-19T05:44:41;101825.50;;;24.22;45.80
69749;BME280;57019;52.354;6.584;2022-07-19T05:47:06;101827.13;;;24.24;45.78
69749;BME280;57019;52.354;6.584;2022-07-19T05:49:31;101829.78;;;24.24;45.79
69749;BME280;57019;52.354;6.584;2022-07-19T05:51:57;101832.03;;;24.27;45.71
69749;BME280;57019;52.354;6.584;2022-07-19T05:54:22;101834.03;;;24.25;45.77
69749;BME280;57019;52.354;6.584;2022-07-19T05:56:48;101832.66;;;24.29;45.65
69749;BME280;57019;52.354;6.584;2022-07-19T05:59:13;101833.09;;;24.32;45.55
69749;BME280;57019;52.354;6.584;2022-07-19T06:01:38;101835.94;;;24.31;45.50
69749;BME280;57019;52.354;6.584;2022-07-19T06:04:04;101832.91;;;24.34;45.41
69749;BME280;57019;52.354;6.584;2022-07-19T06:06:31;101826.66;;;24.35;45.32
69749;BME280;57019;52.354;6.584;2022-07-19T06:08:57;101832.91;;;24.34;45.29
69749;BME280;57019;52.354;6.584;2022-07-19T06:11:23;101824.06;;;24.42;45.25
69749;BME280;57019;52.354;6.584;2022-07-19T06:13:49;101826.53;;;24.43;45.12
69749;BME280;57019;52.354;6.584;2022-07-19T06:16:15;101824.50;;;24.45;45.04
69749;BME280;57019;52.354;6.584;2022-07-19T06:18:41;101825.53;;;24.44;45.04
69749;BME280;57019;52.354;6.584;2022-07-19T06:21:12;101824.50;;;24.45;44.80
69749;BME280;57019;52.354;6.584;2022-07-19T06:23:39;101822.31;;;24.49;44.82
69749;BME280;57019;52.354;6.584;2022-07-19T06:26:05;101826.78;;;24.48;44.77
69749;BME280;57019;52.354;6.584;2022-07-19T06:28:31;101816.84;;;24.50;44.82
69749;BME280;57019;52.354;6.584;2022-07-19T06:30:56;101825.41;;;24.52;44.77
69749;BME280;57019;52.354;6.584;2022-07-19T06:33:22;101825.84;;;24.56;44.66
69749;BME280;57019;52.354;6.584;2022-07-19T06:35:47;101827.28;;;24.59;44.52
69749;BME280;57019;52.354;6.584;2022-07-19T06:38:13;101828.59;;;24.63;44.56
69749;BME280;57019;52.354;6.584;2022-07-19T06:40:39;101830.84;;;24.66;44.53
69749;BME280;57019;52.354;6.584;2022-07-19T06:43:04;101832.16;;;24.77;44.30
69749;BME280;57019;52.354;6.584;2022-07-19T06:45:30;101830.97;;;24.79;44.42
69749;BME280;57019;52.354;6.584;2022-07-19T06:47:55;101834.63;;;24.78;44.40
69749;BME280;57019;52.354;6.584;2022-07-19T06:50:20;101829.31;;;24.78;44.31
69749;BME280;57019;52.354;6.584;2022-07-19T06:52:46;101839.53;;;24.81;44.37
69749;BME280;57019;52.354;6.584;2022-07-19T06:55:12;101842.78;;;24.83;44.42
69749;BME280;57019;52.354;6.584;2022-07-19T06:57:37;101838.31;;;24.84;44.36
69749;BME280;57019;52.354;6.584;2022-07-19T07:00:05;101843.44;;;24.85;44.40
69749;BME280;57019;52.354;6.584;2022-07-19T07:02:31;101844.06;;;24.87;44.37
69749;BME280;57019;52.354;6.584;2022-07-19T07:04:57;101843.66;;;24.90;44.27
69749;BME280;57019;52.354;6.584;2022-07-19T07:07:22;101837.38;;;24.92;44.14
69749;BME280;57019;52.354;6.584;2022-07-19T07:09:47;101840.66;;;24.94;44.12
69749;BME280;57019;52.354;6.584;2022-07-19T07:12:13;101842.28;;;24.95;44.19
69749;BME280;57019;52.354;6.584;2022-07-19T07:14:38;101845.56;;;24.97;44.19
69749;BME280;57019;52.354;6.584;2022-07-19T07:17:03;101840.88;;;24.99;44.00
69749;BME280;57019;52.354;6.584;2022-07-19T07:19:29;101837.88;;;25.02;44.05
69749;BME280;57019;52.354;6.584;2022-07-19T07:21:54;101836.06;;;25.02;43.90
69749;BME280;57019;52.354;6.584;2022-07-19T07:24:22;101831.56;;;25.03;44.03
69749;BME280;57019;52.354;6.584;2022-07-19T07:26:47;101836.50;;;25.06;44.08
69749;BME280;57019;52.354;6.584;2022-07-19T07:29:13;101828.38;;;25.08;44.05
69749;BME280;57019;52.354;6.584;2022-07-19T07:31:38;101816.97;;;25.07;44.13
69749;BME280;57019;52.354;6.584;2022-07-19T07:34:03;101827.19;;;25.10;44.09
69749;BME280;57019;52.354;6.584;2022-07-19T07:36:29;101823.97;;;25.15;43.96
69749;BME280;57019;52.354;6.584;2022-07-19T07:38:54;101823.75;;;25.16;44.12
69749;BME280;57019;52.354;6.584;2022-07-19T07:41:20;101825.22;;;25.19;44.04
69749;BME280;57019;52.354;6.584;2022-07-19T07:43:45;101818.72;;;25.21;44.04
69749;BME280;57019;52.354;6.584;2022-07-19T07:46:10;101814.25;;;25.22;44.30
69749;BME280;57019;52.354;6.584;2022-07-19T07:48:36;101819.97;;;25.26;44.21
69749;BME280;57019;52.354;6.584;2022-07-19T07:51:01;101817.94;;;25.28;44.17
69749;BME280;57019;52.354;6.584;2022-07-19T07:53:26;101816.34;;;25.27;44.22
69749;BME280;57019;52.354;6.584;2022-07-19T07:55:52;101813.50;;;25.28;44.34
69749;BME280;57019;52.354;6.584;2022-07-19T07:58:17;101812.94;;;25.33;44.19
69749;BME280;57019;52.354;6.584;2022-07-19T08:00:42;101819.84;;;25.34;44.18
69749;BME280;57019;52.354;6.584;2022-07-19T08:03:08;101815.19;;;25.36;44.46
69749;BME280;57019;52.354;6.584;2022-07-19T08:05:33;101814.81;;;25.39;44.45
69749;BME280;57019;52.354;6.584;2022-07-19T08:07:59;101805.66;;;25.42;44.45
69749;BME280;57019;52.354;6.584;2022-07-19T08:10:27;101809.13;;;25.42;44.53
69749;BME280;57019;52.354;6.584;2022-07-19T08:12:53;101810.78;;;25.43;44.66
69749;BME280;57019;52.354;6.584;2022-07-19T08:15:19;101808.75;;;25.45;44.49
69749;BME280;57019;52.354;6.584;2022-07-19T08:17:44;101802.66;;;25.45;44.71
69749;BME280;57019;52.354;6.584;2022-07-19T08:20:10;101803.44;;;25.45;44.57
69749;BME280;57019;52.354;6.584;2022-07-19T08:22:35;101805.09;;;25.46;44.47
69749;BME280;57019;52.354;6.584;2022-07-19T08:25:01;101797.16;;;25.46;44.50
69749;BME280;57019;52.354;6.584;2022-07-19T08:27:26;101803.25;;;25.47;44.58
69749;BME280;57019;52.354;6.584;2022-07-19T08:29:52;101799.81;;;25.46;44.66
69749;BME280;57019;52.354;6.584;2022-07-19T08:32:17;101796.97;;;25.48;44.57
69749;BME280;57019;52.354;6.584;2022-07-19T08:34:42;101794.13;;;25.49;44.92
69749;BME280;57019;52.354;6.584;2022-07-19T08:37:08;101786.38;;;25.48;44.64
69749;BME280;57019;52.354;6.584;2022-07-19T08:39:33;101788.22;;;25.47;44.74
69749;BME280;57019;52.354;6.584;2022-07-19T08:41:58;101792.47;;;25.48;44.89
69749;BME280;57019;52.354;6.584;2022-07-19T08:44:25;101789.47;;;25.51;44.82
69749;BME280;57019;52.354;6.584;2022-07-19T08:46:51;101782.34;;;25.52;44.68
69749;BME280;57019;52.354;6.584;2022-07-19T08:49:17;101780.50;;;25.52;44.94
69749;BME280;57019;52.354;6.584;2022-07-19T08:51:44;101786.44;;;25.54;44.84
69749;BME280;57019;52.354;6.584;2022-07-19T08:54:12;101780.31;;;25.54;44.91
69749;BME280;57019;52.354;6.584;2022-07-19T08:56:37;101781.94;;;25.55;44.81
69749;BME280;57019;52.354;6.584;2022-07-19T08:59:24;101778.50;;;25.54;44.99
69749;BME280;57019;52.354;6.584;2022-07-19T09:01:50;101787.66;;;25.59;44.81
69749;BME280;57019;52.354;6.584;2022-07-19T09:04:20;101783.38;;;25.57;44.80
69749;BME280;57019;52.354;6.584;2022-07-19T09:06:51;101786.03;;;25.57;44.99
69749;BME280;57019;52.354;6.584;2022-07-19T09:09:20;101783.38;;;25.57;44.99
69749;BME280;57019;52.354;6.584;2022-07-19T09:11:47;101783.38;;;25.57;44.97
69749;BME280;57019;52.354;6.584;2022-07-19T09:19:18;101778.72;;;25.60;44.89
69749;BME280;57019;52.354;6.584;2022-07-19T09:22:17;101777.69;;;25.61;45.09
69749;BME280;57019;52.354;6.584;2022-07-19T09:24:45;101768.16;;;25.60;44.98
69749;BME280;57019;52.354;6.584;2022-07-19T09:27:13;101772.41;;;25.61;45.11
69749;BME280;57019;52.354;6.584;2022-07-19T09:29:47;101765.09;;;25.63;44.86
69749;BME280;57019;52.354;6.584;2022-07-19T09:32:18;101765.31;;;25.61;45.19
69749;BME280;57019;52.354;6.584;2022-07-19T09:34:58;101760.22;;;25.60;45.16
69749;BME280;57019;52.354;6.584;2022-07-19T09:37:26;101759.19;;;25.61;45.06
69749;BME280;57019;52.354;6.584;2022-07-19T09:39:58;101748.59;;;25.61;44.99
69749;BME280;57019;52.354;6.584;2022-07-19T09:42:37;101758.19;;;25.62;45.12
69749;BME280;57019;52.354;6.584;2022-07-19T09:45:08;101747.81;;;25.60;45.21
69749;BME280;57019;52.354;6.584;2022-07-19T09:47:38;101747.81;;;25.60;45.01
69749;BME280;57019;52.354;6.584;2022-07-19T09:50:09;101747.81;;;25.60;44.97
69749;BME280;57019;52.354;6.584;2022-07-19T09:52:36;101750.44;;;25.60;45.19
69749;BME280;57019;52.354;6.584;2022-07-19T09:55:06;101751.44;;;25.59;45.08
69749;BME280;57019;52.354;6.584;2022-07-19T09:57:35;101741.88;;;25.58;45.26
69749;BME280;57019;52.354;6.584;2022-07-19T10:00:04;101750.66;;;25.59;45.25
69749;BME280;57019;52.354;6.584;2022-07-19T10:02:33;101753.09;;;25.60;45.24
69749;BME280;57019;52.354;6.584;2022-07-19T10:04:59;101750.66;;;25.59;45.06
69749;BME280;57019;52.354;6.584;2022-07-19T10:07:25;101747.00;;;25.60;45.29
69749;BME280;57019;52.354;6.584;2022-07-19T10:09:51;101744.34;;;25.60;45.35
69749;BME280;57019;52.354;6.584;2022-07-19T10:12:16;101746.16;;;25.59;45.29
69749;BME280;57019;52.354;6.584;2022-07-19T10:14:42;101743.50;;;25.59;45.25
69749;BME280;57019;52.354;6.584;2022-07-19T10:17:14;101745.34;;;25.59;45.34
69749;BME280;57019;52.354;6.584;2022-07-19T10:19:45;101736.41;;;25.60;45.36
69749;BME280;57019;52.354;6.584;2022-07-19T10:22:13;101725.22;;;25.57;45.35
69749;BME280;57019;52.354;6.584;2022-07-19T10:24:52;101735.59;;;25.59;45.27
69749;BME280;57019;52.354;6.584;2022-07-19T10:27:39;101729.50;;;25.59;45.17
69749;BME280;57019;52.354;6.584;2022-07-19T10:32:55;101734.78;;;25.59;45.17
69749;BME280;57019;52.354;6.584;2022-07-19T10:37:54;101726.00;;;25.58;45.30
69749;BME280;57019;52.354;6.584;2022-07-19T10:43:19;101713.19;;;25.55;45.53
69749;BME280;57019;52.354;6.584;2022-07-19T10:51:10;101704.69;;;25.60;45.19
69749;BME280;57019;52.354;6.584;2022-07-19T10:56:22;101704.84;;;25.58;45.20
69749;BME280;57019;52.354;6.584;2022-07-19T10:58:54;101704.69;;;25.60;45.18
69749;BME280;57019;52.354;6.584;2022-07-19T11:01:21;101698.34;;;25.61;45.10
69749;BME280;57019;52.354;6.584;2022-07-19T11:03:49;101702.63;;;25.62;45.16
69749;BME280;57019;52.354;6.584;2022-07-19T11:06:26;101697.34;;;25.62;45.08
69749;BME280;57019;52.354;6.584;2022-07-19T11:08:57;101700.63;;;25.64;45.09
69749;BME280;57019;52.354;6.584;2022-07-19T11:11:24;101691.66;;;25.65;45.12
69749;BME280;57019;52.354;6.584;2022-07-19T11:13:53;101685.13;;;25.61;45.37
69749;BME280;57019;52.354;6.584;2022-07-19T11:16:21;101685.53;;;25.57;45.42
69749;BME280;57019;52.354;6.584;2022-07-19T11:18:46;101680.25;;;25.57;45.20
69749;BME280;57019;52.354;6.584;2022-07-19T11:21:13;101683.91;;;25.56;45.22
69749;BME280;57019;52.354;6.584;2022-07-19T11:23:40;101672.53;;;25.56;45.23
69749;BME280;57019;52.354;6.584;2022-07-19T11:28:34;101674.56;;;25.61;45.30
69749;BME280;57019;52.354;6.584;2022-07-19T11:31:01;101669.06;;;25.62;45.25
69749;BME280;57019;52.354;6.584;2022-07-19T11:33:26;101667.25;;;25.63;45.06
69749;BME280;57019;52.354;6.584;2022-07-19T11:35:53;101665.84;;;25.67;45.23
69749;BME280;57019;52.354;6.584;2022-07-19T11:38:37;101670.13;;;25.68;45.04
69749;BME280;57019;52.354;6.584;2022-07-19T11:41:03;101662.00;;;25.69;44.83
69749;BME280;57019;52.354;6.584;2022-07-19T11:43:29;101657.09;;;25.73;44.69
69749;BME280;57019;52.354;6.584;2022-07-19T11:45:54;101666.88;;;25.72;45.04
69749;BME280;57019;52.354;6.584;2022-07-19T11:48:27;101647.75;;;25.64;44.81
69749;BME280;57019;52.354;6.584;2022-07-19T11:51:09;101657.03;;;25.46;44.58
69749;BME280;57019;52.354;6.584;2022-07-19T11:53:37;101654.69;;;25.30;44.48
69749;BME280;57019;52.354;6.584;2022-07-19T11:56:05;101652.63;;;25.18;44.43
69749;BME280;57019;52.354;6.584;2022-07-19T11:58:32;101655.59;;;25.09;44.35
69749;BME280;57019;52.354;6.584;2022-07-19T12:01:04;101653.53;;;25.04;44.21
69749;BME280;57019;52.354;6.584;2022-07-19T12:03:30;101653.31;;;24.99;44.14
69749;BME280;57019;52.354;6.584;2022-07-19T12:06:01;101643.53;;;24.93;44.05
69749;BME280;57019;52.354;6.584;2022-07-19T12:08:37;101638.41;;;24.84;43.99
69749;BME280;57019;52.354;6.584;2022-07-19T12:11:24;101634.53;;;24.80;43.78
69749;BME280;57019;52.354;6.584;2022-07-19T12:13:53;101637.56;;;24.77;43.44
69749;BME280;57019;52.354;6.584;2022-07-19T12:16:21;101631.03;;;24.73;43.55
69749;BME280;57019;52.354;6.584;2022-07-19T12:24:19;101631.19;;;24.71;43.11
69749;BME280;57019;52.354;6.584;2022-07-19T12:32:35;101626.50;;;24.67;42.85
69749;BME280;57019;52.354;6.584;2022-07-19T12:37:36;101624.25;;;24.64;42.56
69749;BME280;57019;52.354;6.584;2022-07-19T12:45:17;101611.41;;;24.61;42.26
69749;BME280;57019;52.354;6.584;2022-07-19T12:47:43;101611.41;;;24.61;42.23
69749;BME280;57019;52.354;6.584;2022-07-19T12:50:26;101609.63;;;24.61;42.06
69749;BME280;57019;52.354;6.584;2022-07-19T12:52:55;101600.84;;;24.61;42.01
69749;BME280;57019;52.354;6.584;2022-07-19T12:55:21;101595.56;;;24.61;41.85
69749;BME280;57019;52.354;6.584;2022-07-19T12:57:48;101599.63;;;24.56;41.88
69749;BME280;57019;52.354;6.584;2022-07-19T13:00:16;101600.63;;;24.55;41.39
69749;BME280;57019;52.354;6.584;2022-07-19T13:02:41;101595.72;;;24.52;41.64
69749;BME280;57019;52.354;6.584;2022-07-19T13:05:07;101593.88;;;24.53;41.46
69749;BME280;57019;52.354;6.584;2022-07-19T13:07:34;101591.84;;;24.55;41.37
69749;BME280;57019;52.354;6.584;2022-07-19T13:09:59;101588.22;;;24.56;41.26
69749;BME280;57019;52.354;6.584;2022-07-19T13:12:24;101590.25;;;24.54;41.15
69749;BME280;57019;52.354;6.584;2022-07-19T13:14:50;101580.50;;;24.54;41.21
69749;BME280;57019;52.354;6.584;2022-07-19T13:17:16;101578.84;;;24.53;41.04
69749;BME280;57019;52.354;6.584;2022-07-19T13:19:41;101580.88;;;24.51;41.10
69749;BME280;57019;52.354;6.584;2022-07-19T13:22:07;101578.06;;;24.53;40.88
69749;BME280;57019;52.354;6.584;2022-07-19T13:24:32;101573.78;;;24.52;40.91
69749;BME280;57019;52.354;6.584;2022-07-19T13:26:58;101569.69;;;24.49;40.61
69749;BME280;57019;52.354;6.584;2022-07-19T13:29:23;101573.97;;;24.50;40.78
69749;BME280;57019;52.354;6.584;2022-07-19T13:31:49;101564.59;;;24.48;40.82